Saint Marys, Georgia
Current Conditions -  °F | °C
As of 9:15 AM on Monday 26 Jan 2015 (Local Time) from KFHB Reporting Station
Clear Clear  
Wind Chill: 57°   Ceiling: Unl
Heat Index: 57°   Visibility: 10mi
Dew Point: 50°   Wind: 14mph
Humidity: 77%   Direction: 280°W
Pressure: 29.81"   Gusts: 21mph
Location:  30.73°N, 81.55°W
Report Text: KFHB 261415Z AUTO 28012G18KT 10SM CLR 14/10 A2981 RMK AO1
Loading
Personal Weather Stations






























Interactive Weather Map New forecast layout! Learn more

10-Day Weather Forecast

Advertisements
Track Severe Weather on mobile